Time;durP1;ratioP1;P1;durP2;ratioP2;P2;SDS_P1;SDS_P2;PMS_P1;PMS_P2;Temp;Humidity;BMP_temperature;BMP_pressure;BME280_temperature;BME280_humidity;BME280_pressure;Samples;Min_cycle;Max_cycle;Signal;HPM_P1;HPM_P2
2023/01/25 00:00:00;;;;;;;3.10;3.00;;;4.90;99.90;;;;;;5050351;28;20208;-65
2023/01/25 00:02:26;;;;;;;3.53;3.33;;;4.90;99.90;;;;;;5049875;28;20224;-65
2023/01/25 00:04:53;;;;;;;3.03;2.87;;;4.80;99.90;;;;;;5049297;28;20204;-66
2023/01/25 00:07:20;;;;;;;2.93;2.73;;;4.80;99.90;;;;;;5051508;28;20211;-65
2023/01/25 00:09:47;;;;;;;2.83;2.70;;;4.90;99.90;;;;;;5051045;28;20973;-66
2023/01/25 00:12:15;;;;;;;3.20;3.00;;;4.80;99.90;;;;;;5050777;28;20241;-66
2023/01/25 00:14:42;;;;;;;3.57;3.37;;;4.80;99.90;;;;;;5052855;28;20215;-65
2023/01/25 00:17:09;;;;;;;3.47;3.27;;;4.80;99.90;;;;;;5054128;28;20200;-67
2023/01/25 00:19:35;;;;;;;3.53;3.33;;;4.80;99.90;;;;;;5051366;28;20208;-67
2023/01/25 00:22:02;;;;;;;3.17;3.07;;;4.60;99.90;;;;;;5052339;28;20223;-64
2023/01/25 00:24:29;;;;;;;3.30;3.10;;;4.50;99.90;;;;;;5051765;28;20203;-65
2023/01/25 00:26:56;;;;;;;3.33;3.03;;;4.60;99.90;;;;;;5051072;28;20196;-66
2023/01/25 00:29:24;;;;;;;3.47;3.27;;;4.50;99.90;;;;;;5050393;28;20208;-66
2023/01/25 00:32:02;;;;;;;2.97;2.77;;;4.50;99.90;;;;;;5050471;28;20254;-66
2023/01/25 00:34:48;;;;;;;3.00;2.80;;;4.50;99.90;;;;;;5049551;28;20204;-67
2023/01/25 00:37:23;;;;;;;2.70;2.60;;;4.50;99.90;;;;;;5051019;28;20299;-69
2023/01/25 00:39:50;;;;;;;2.73;2.63;;;4.50;99.90;;;;;;5055124;28;20195;-66
2023/01/25 00:42:18;;;;;;;2.93;2.83;;;4.60;99.90;;;;;;5069646;28;20310;-67
2023/01/25 00:44:47;;;;;;;2.70;2.60;;;4.70;99.90;;;;;;5062822;28;20231;-73
2023/01/25 00:47:14;;;;;;;2.87;2.70;;;4.70;99.90;;;;;;5056405;28;20234;-66
2023/01/25 00:49:42;;;;;;;2.70;2.60;;;4.70;99.90;;;;;;5051743;28;20724;-65
2023/01/25 00:52:11;;;;;;;2.63;2.43;;;4.70;99.90;;;;;;5051504;28;20259;-69
2023/01/25 00:54:38;;;;;;;2.73;2.57;;;4.70;99.90;;;;;;5055903;28;20215;-69
2023/01/25 00:57:05;;;;;;;3.20;3.00;;;4.70;99.90;;;;;;5063128;28;20203;-64
2023/01/25 00:59:33;;;;;;;2.97;2.77;;;4.70;99.90;;;;;;5060293;28;20204;-65
2023/01/25 01:02:01;;;;;;;2.97;2.77;;;4.70;99.90;;;;;;5049654;28;20231;-66
2023/01/25 01:04:28;;;;;;;2.93;2.73;;;4.80;99.90;;;;;;5049980;28;20200;-65
2023/01/25 01:07:32;;;;;;;2.80;2.60;;;4.80;99.90;;;;;;5048860;28;20220;-65
2023/01/25 01:13:59;;;;;;;2.83;2.63;;;4.80;99.90;;;;;;5053077;28;20195;-64
2023/01/25 01:16:26;;;;;;;3.20;3.00;;;4.80;99.90;;;;;;5051761;28;20211;-65
2023/01/25 01:18:54;;;;;;;2.87;2.67;;;4.80;99.90;;;;;;5054240;28;20208;-64
2023/01/25 01:21:21;;;;;;;2.87;2.70;;;4.80;99.90;;;;;;5054586;28;20220;-65
2023/01/25 01:23:48;;;;;;;3.13;2.93;;;4.80;99.90;;;;;;5055921;28;20204;-67
2023/01/25 01:26:18;;;;;;;2.80;2.70;;;4.80;99.90;;;;;;5069728;28;20242;-68
2023/01/25 01:28:45;;;;;;;3.20;3.00;;;4.80;99.90;;;;;;5063323;28;20269;-65
2023/01/25 01:31:15;;;;;;;3.43;3.23;;;4.70;99.90;;;;;;5055847;28;20232;-64
2023/01/25 01:33:42;;;;;;;3.00;2.80;;;4.70;99.90;;;;;;5055378;28;20290;-65
2023/01/25 01:36:13;;;;;;;3.10;2.90;;;4.70;99.90;;;;;;5053532;28;20575;-66
2023/01/25 01:38:39;;;;;;;3.53;3.33;;;4.80;99.90;;;;;;5053861;28;20206;-66
2023/01/25 01:41:07;;;;;;;3.40;3.20;;;4.70;99.90;;;;;;5053062;28;20220;-65
2023/01/25 01:43:34;;;;;;;3.00;2.80;;;4.70;99.90;;;;;;5053580;28;20208;-65
2023/01/25 01:46:02;;;;;;;2.83;2.63;;;4.70;99.90;;;;;;5057415;28;20231;-67
2023/01/25 01:48:35;;;;;;;2.93;2.80;;;4.70;99.90;;;;;;5058315;28;20212;-67
2023/01/25 01:51:09;;;;;;;3.47;3.27;;;4.70;99.90;;;;;;5057413;28;20571;-64
2023/01/25 01:53:40;;;;;;;3.20;3.00;;;4.70;99.90;;;;;;5057879;28;20223;-66
2023/01/25 01:56:13;;;;;;;3.43;3.23;;;4.70;99.90;;;;;;5059936;28;20211;-70
2023/01/25 01:58:42;;;;;;;2.97;2.80;;;4.60;99.90;;;;;;5059052;28;20212;-66
2023/01/25 02:01:09;;;;;;;3.53;3.33;;;4.70;99.90;;;;;;5056463;28;20230;-69
2023/01/25 02:03:36;;;;;;;3.20;3.00;;;4.70;99.90;;;;;;5057569;28;20211;-65
2023/01/25 02:06:08;;;;;;;3.10;2.90;;;4.60;99.90;;;;;;5056700;28;20212;-64
2023/01/25 02:08:36;;;;;;;3.10;2.90;;;4.60;99.90;;;;;;5054451;28;20222;-68
2023/01/25 02:11:05;;;;;;;3.40;3.20;;;4.60;99.90;;;;;;5053640;28;20228;-64
2023/01/25 02:13:32;;;;;;;3.53;3.33;;;4.50;99.90;;;;;;5052216;28;20224;-66
2023/01/25 02:15:59;;;;;;;3.37;3.17;;;4.50;99.90;;;;;;5051266;28;20290;-66
2023/01/25 02:18:26;;;;;;;3.23;3.03;;;4.50;99.90;;;;;;5050843;28;20285;-64
2023/01/25 02:20:54;;;;;;;3.50;3.20;;;4.50;99.90;;;;;;5050912;28;20601;-66
2023/01/25 02:23:27;;;;;;;3.27;3.07;;;4.50;99.90;;;;;;5051975;28;20204;-66
2023/01/25 02:25:56;;;;;;;3.60;3.40;;;4.50;99.90;;;;;;5050768;28;20258;-67
2023/01/25 02:28:27;;;;;;;4.00;3.80;;;4.40;99.90;;;;;;5051557;28;20690;-66
2023/01/25 02:30:54;;;;;;;3.50;3.30;;;4.40;99.90;;;;;;5051352;28;20228;-65
2023/01/25 02:33:23;;;;;;;3.80;3.60;;;4.30;99.90;;;;;;5051670;28;20228;-67
2023/01/25 02:35:56;;;;;;;4.00;3.77;;;4.20;99.90;;;;;;5050670;28;20203;-65
2023/01/25 02:38:23;;;;;;;3.60;3.40;;;4.10;99.90;;;;;;5051655;28;20243;-66
2023/01/25 02:40:55;;;;;;;3.10;2.90;;;4.10;99.90;;;;;;5046632;28;20227;-65
2023/01/25 02:43:29;;;;;;;3.77;3.50;;;4.20;99.90;;;;;;5051014;28;20290;-65
2023/01/25 02:46:00;;;;;;;3.30;3.10;;;4.20;99.90;;;;;;5052173;28;20204;-66
2023/01/25 02:48:27;;;;;;;3.80;3.60;;;4.20;99.90;;;;;;5052013;28;20231;-66
2023/01/25 02:50:54;;;;;;;3.53;3.33;;;4.20;99.90;;;;;;5051633;28;20219;-65
2023/01/25 02:53:20;;;;;;;3.50;3.30;;;4.20;99.90;;;;;;5051196;28;20222;-64
2023/01/25 02:55:47;;;;;;;3.20;3.00;;;4.20;99.90;;;;;;5050736;28;20204;-66
2023/01/25 02:58:14;;;;;;;3.67;3.47;;;4.30;99.90;;;;;;5051307;28;20200;-66
2023/01/25 03:00:42;;;;;;;3.70;3.50;;;4.40;99.90;;;;;;5050773;28;20716;-65
2023/01/25 03:03:09;;;;;;;3.40;3.20;;;4.30;99.90;;;;;;5052265;28;20629;-65
2023/01/25 03:05:36;;;;;;;3.53;3.30;;;4.30;99.90;;;;;;5051299;28;20207;-67
2023/01/25 03:08:03;;;;;;;3.30;3.10;;;4.40;99.90;;;;;;5051540;28;20669;-65
2023/01/25 03:10:30;;;;;;;3.63;3.43;;;4.40;99.90;;;;;;5054788;28;20710;-67
2023/01/25 03:12:56;;;;;;;3.33;3.13;;;4.40;99.90;;;;;;5059153;28;20258;-65
2023/01/25 03:15:23;;;;;;;3.77;3.50;;;4.40;99.90;;;;;;5050495;28;20244;-63
2023/01/25 03:17:52;;;;;;;3.40;3.20;;;4.50;99.90;;;;;;5053401;28;20216;-65
2023/01/25 03:20:20;;;;;;;3.47;3.27;;;4.50;99.90;;;;;;5056139;28;20327;-65
2023/01/25 03:22:47;;;;;;;3.80;3.60;;;4.40;99.90;;;;;;5052138;28;20226;-67
2023/01/25 03:25:14;;;;;;;3.50;3.30;;;4.30;99.90;;;;;;5051451;28;20218;-66
2023/01/25 03:27:41;;;;;;;3.77;3.57;;;4.20;99.90;;;;;;5054278;28;20206;-66
2023/01/25 03:30:09;;;;;;;4.07;3.87;;;4.20;99.90;;;;;;5054787;28;20207;-67
2023/01/25 03:32:36;;;;;;;3.73;3.53;;;4.20;99.90;;;;;;5054873;28;20666;-64
2023/01/25 03:35:06;;;;;;;3.70;3.50;;;4.10;99.90;;;;;;5054317;28;20214;-67
2023/01/25 03:37:33;;;;;;;3.40;3.20;;;4.00;99.90;;;;;;5054324;28;20239;-66
2023/01/25 03:40:00;;;;;;;3.70;3.50;;;4.00;99.90;;;;;;5055098;28;20367;-67
2023/01/25 03:42:27;;;;;;;3.90;3.70;;;4.10;99.90;;;;;;5055443;28;20216;-65
2023/01/25 03:44:53;;;;;;;3.40;3.20;;;4.10;99.90;;;;;;5052659;28;20208;-66
2023/01/25 03:47:20;;;;;;;3.60;3.40;;;4.20;99.90;;;;;;5056742;28;20214;-67
2023/01/25 03:49:47;;;;;;;3.60;3.40;;;4.20;99.90;;;;;;5053012;28;20212;-65
2023/01/25 03:52:15;;;;;;;3.53;3.33;;;4.20;99.90;;;;;;5050152;28;20765;-65
2023/01/25 03:54:42;;;;;;;3.47;3.27;;;4.20;99.90;;;;;;5054305;28;20623;-65
2023/01/25 03:57:09;;;;;;;3.40;3.20;;;4.10;99.90;;;;;;5051952;28;20210;-66
2023/01/25 03:59:36;;;;;;;3.33;3.13;;;4.20;99.90;;;;;;5051077;28;20230;-66
2023/01/25 04:02:02;;;;;;;3.50;3.30;;;4.20;99.90;;;;;;5050533;28;20306;-68
2023/01/25 04:04:29;;;;;;;3.23;3.03;;;4.20;99.90;;;;;;5050595;28;20666;-66
2023/01/25 04:06:56;;;;;;;3.13;2.93;;;4.20;99.90;;;;;;5050049;28;20214;-65
2023/01/25 04:09:24;;;;;;;3.57;3.37;;;4.30;99.90;;;;;;5050584;28;20204;-67
2023/01/25 04:11:51;;;;;;;3.50;3.30;;;4.30;99.90;;;;;;5050390;28;20247;-66
2023/01/25 04:14:18;;;;;;;3.53;3.33;;;4.30;99.90;;;;;;5052748;28;20214;-64
2023/01/25 04:16:45;;;;;;;3.60;3.40;;;4.30;99.90;;;;;;5056926;28;20315;-70
2023/01/25 04:19:12;;;;;;;3.83;3.53;;;4.20;99.90;;;;;;5058294;28;20310;-65
2023/01/25 04:21:38;;;;;;;3.90;3.70;;;4.10;99.90;;;;;;5051314;28;20220;-66
2023/01/25 04:24:06;;;;;;;3.80;3.60;;;4.00;99.90;;;;;;5052214;28;20200;-68
2023/01/25 04:26:34;;;;;;;3.50;3.30;;;4.10;99.90;;;;;;5055203;28;20207;-64
2023/01/25 04:29:01;;;;;;;3.63;3.43;;;4.10;99.90;;;;;;5051774;28;20210;-65
2023/01/25 04:31:27;;;;;;;3.70;3.50;;;4.10;99.90;;;;;;5052318;28;20314;-69
2023/01/25 04:33:55;;;;;;;3.33;3.13;;;4.10;99.90;;;;;;5052531;28;20227;-66
2023/01/25 04:36:22;;;;;;;3.30;3.10;;;4.20;99.90;;;;;;5050497;28;20678;-66
2023/01/25 04:38:49;;;;;;;3.30;3.10;;;4.30;99.90;;;;;;5051126;28;20204;-64
2023/01/25 04:41:16;;;;;;;3.93;3.73;;;4.30;99.90;;;;;;5050771;28;20228;-66
2023/01/25 04:43:44;;;;;;;3.67;3.47;;;4.30;99.90;;;;;;5056242;28;20200;-67
2023/01/25 04:46:12;;;;;;;3.40;3.20;;;4.20;99.90;;;;;;5062451;28;20271;-65
2023/01/25 04:48:39;;;;;;;3.13;2.93;;;4.20;99.90;;;;;;5063458;28;20726;-66
2023/01/25 04:51:08;;;;;;;3.80;3.60;;;4.30;99.90;;;;;;5063216;28;20254;-65
2023/01/25 04:53:35;;;;;;;3.47;3.27;;;4.30;99.90;;;;;;5064535;28;20523;-66
2023/01/25 04:56:02;;;;;;;3.90;3.70;;;4.40;99.90;;;;;;5062647;28;20662;-68
2023/01/25 04:58:29;;;;;;;2.93;2.77;;;4.40;99.90;;;;;;5061545;28;20204;-64
2023/01/25 05:01:02;;;;;;;3.87;3.63;;;4.40;99.90;;;;;;5056494;28;20236;-66
2023/01/25 05:03:28;;;;;;;3.20;3.00;;;4.50;99.90;;;;;;5056348;28;20208;-68
2023/01/25 05:05:55;;;;;;;3.60;3.40;;;4.40;99.90;;;;;;5055361;28;20212;-64
2023/01/25 05:08:22;;;;;;;3.20;3.00;;;4.40;99.90;;;;;;5056586;28;20596;-65
2023/01/25 05:10:49;;;;;;;3.30;3.10;;;4.50;99.90;;;;;;5059405;28;20326;-66
2023/01/25 05:13:16;;;;;;;3.80;3.60;;;4.50;99.90;;;;;;5059197;28;20234;-65
2023/01/25 05:15:42;;;;;;;3.30;3.10;;;4.50;99.90;;;;;;5055708;28;20581;-67
2023/01/25 05:18:11;;;;;;;3.40;3.20;;;4.40;99.90;;;;;;5056271;28;20216;-66
2023/01/25 05:20:37;;;;;;;3.90;3.70;;;4.40;99.90;;;;;;5054336;28;20224;-66
2023/01/25 05:23:04;;;;;;;4.47;4.20;;;4.40;99.90;;;;;;5054095;28;20210;-65
2023/01/25 05:28:15;;;;;;;4.00;3.70;;;4.30;99.90;;;;;;5053848;28;20207;-66
2023/01/25 05:30:42;;;;;;;4.10;3.80;;;4.30;99.90;;;;;;5053325;28;20223;-67
2023/01/25 05:33:10;;;;;;;3.50;3.30;;;4.30;99.90;;;;;;5052072;28;20227;-68
2023/01/25 05:35:37;;;;;;;3.40;3.20;;;4.30;99.90;;;;;;5052634;28;20208;-69
2023/01/25 05:38:04;;;;;;;3.57;3.37;;;4.30;99.90;;;;;;5053806;28;20320;-64
2023/01/25 05:40:31;;;;;;;3.90;3.70;;;4.40;99.90;;;;;;5053528;28;20224;-65
2023/01/25 05:42:59;;;;;;;3.63;3.43;;;4.20;99.90;;;;;;5067667;28;20206;-67
2023/01/25 05:45:26;;;;;;;3.43;3.23;;;4.40;99.90;;;;;;5072622;28;20233;-67
2023/01/25 05:47:54;;;;;;;3.93;3.70;;;4.40;99.90;;;;;;5073034;28;20285;-65
2023/01/25 05:50:22;;;;;;;4.37;4.07;;;4.40;99.90;;;;;;5071954;28;20222;-66
2023/01/25 05:52:49;;;;;;;3.73;3.53;;;4.40;99.90;;;;;;5060179;28;20223;-64
2023/01/25 05:55:16;;;;;;;3.60;3.40;;;4.30;99.90;;;;;;5053152;28;20690;-66
2023/01/25 05:57:43;;;;;;;3.80;3.60;;;4.10;99.90;;;;;;5053120;28;20303;-66
2023/01/25 06:00:11;;;;;;;3.80;3.60;;;4.20;99.90;;;;;;5052934;28;20568;-67
2023/01/25 06:02:38;;;;;;;3.80;3.60;;;4.10;99.90;;;;;;5052479;28;20557;-65
2023/01/25 06:05:06;;;;;;;3.97;3.77;;;4.10;99.90;;;;;;5070803;28;20219;-65
2023/01/25 06:07:36;;;;;;;3.70;3.50;;;4.00;99.90;;;;;;5072827;28;20302;-65
2023/01/25 06:10:03;;;;;;;3.40;3.20;;;4.00;99.90;;;;;;5072506;28;20203;-66
2023/01/25 06:12:30;;;;;;;3.50;3.30;;;4.00;99.90;;;;;;5060757;28;20228;-69
2023/01/25 06:14:57;;;;;;;4.10;3.80;;;4.10;99.90;;;;;;5053768;28;20788;-66
2023/01/25 06:17:24;;;;;;;3.40;3.20;;;4.10;99.90;;;;;;5052531;28;20200;-65
2023/01/25 06:19:51;;;;;;;3.47;3.27;;;4.10;99.90;;;;;;5053055;28;20211;-67
2023/01/25 06:22:17;;;;;;;3.97;3.73;;;4.20;99.90;;;;;;5052358;28;20673;-67
2023/01/25 06:24:46;;;;;;;3.77;3.57;;;4.20;99.90;;;;;;5049087;28;20210;-67
2023/01/25 06:27:12;;;;;;;3.80;3.60;;;4.20;99.90;;;;;;5043296;28;20670;-68
2023/01/25 06:29:39;;;;;;;3.80;3.60;;;4.20;99.90;;;;;;5051431;28;20206;-66
2023/01/25 06:32:06;;;;;;;3.97;3.77;;;4.20;99.90;;;;;;5050874;28;20916;-64
2023/01/25 06:34:33;;;;;;;3.93;3.73;;;4.20;99.90;;;;;;5047396;28;20244;-68
2023/01/25 06:37:00;;;;;;;3.63;3.43;;;4.10;99.90;;;;;;5051425;28;20206;-67
2023/01/25 06:39:28;;;;;;;4.17;3.87;;;4.10;99.90;;;;;;5074256;28;20562;-70
2023/01/25 06:41:56;;;;;;;4.23;4.03;;;4.00;99.90;;;;;;5070194;28;20235;-64
2023/01/25 06:44:23;;;;;;;4.30;4.00;;;3.90;99.90;;;;;;5055661;28;20254;-67
2023/01/25 06:46:50;;;;;;;4.07;3.87;;;3.80;99.90;;;;;;5056543;28;20205;-67
2023/01/25 06:49:17;;;;;;;3.87;3.67;;;3.80;99.90;;;;;;5054158;28;20744;-70
2023/01/25 06:51:44;;;;;;;3.30;3.10;;;3.90;99.90;;;;;;5052174;28;20260;-67
2023/01/25 06:54:11;;;;;;;3.80;3.60;;;3.90;99.90;;;;;;5054632;28;20228;-65
2023/01/25 06:56:37;;;;;;;3.87;3.67;;;3.90;99.90;;;;;;5053569;28;20579;-67
2023/01/25 06:59:05;;;;;;;3.97;3.77;;;3.90;99.90;;;;;;5051766;28;20203;-66
2023/01/25 07:01:32;;;;;;;4.00;3.80;;;3.80;99.90;;;;;;5052692;28;20722;-66
2023/01/25 07:03:59;;;;;;;4.30;4.10;;;3.80;99.90;;;;;;5053592;28;20816;-66
2023/01/25 07:06:32;;;;;;;3.90;3.70;;;3.90;99.90;;;;;;5051997;28;20212;-66
2023/01/25 07:09:03;;;;;;;4.07;3.87;;;3.90;99.90;;;;;;5051909;28;20207;-64
2023/01/25 07:11:30;;;;;;;4.33;4.03;;;4.00;99.90;;;;;;5051425;28;20228;-65
2023/01/25 07:13:56;;;;;;;4.70;4.40;;;3.90;99.90;;;;;;5051689;28;20731;-64
2023/01/25 07:16:25;;;;;;;3.70;3.50;;;3.90;99.90;;;;;;5051110;28;20207;-64
2023/01/25 07:18:51;;;;;;;4.00;3.80;;;3.80;99.90;;;;;;5051003;28;20216;-66
2023/01/25 07:21:21;;;;;;;4.00;3.80;;;3.90;99.90;;;;;;5050873;28;20239;-66
2023/01/25 07:23:48;;;;;;;4.57;4.23;;;3.80;99.90;;;;;;5051138;28;20245;-66
2023/01/25 07:26:17;;;;;;;4.70;4.40;;;3.80;99.90;;;;;;5054264;28;20208;-67
2023/01/25 07:28:44;;;;;;;4.07;3.87;;;3.70;99.90;;;;;;5054878;28;20208;-66
2023/01/25 07:31:11;;;;;;;3.87;3.67;;;3.70;99.90;;;;;;5050614;28;20219;-66
2023/01/25 07:33:39;;;;;;;4.00;3.80;;;3.90;99.90;;;;;;5050967;28;20232;-64
2023/01/25 07:36:08;;;;;;;4.17;3.97;;;4.00;99.90;;;;;;5051390;28;20576;-66
2023/01/25 07:38:36;;;;;;;3.97;3.67;;;4.10;99.90;;;;;;5051748;28;20569;-65
2023/01/25 07:41:04;;;;;;;4.40;4.13;;;4.00;99.90;;;;;;5051664;28;20224;-67
2023/01/25 07:43:30;;;;;;;4.50;4.20;;;4.00;99.90;;;;;;5056581;28;20204;-67
2023/01/25 07:46:01;;;;;;;3.87;3.57;;;4.10;99.90;;;;;;5057871;28;20204;-65
2023/01/25 07:48:29;;;;;;;4.93;4.63;;;4.10;99.90;;;;;;5053679;28;20235;-64
2023/01/25 07:51:21;;;;;;;5.30;4.97;;;4.10;99.90;;;;;;5050548;28;20238;-67
2023/01/25 07:53:49;;;;;;;5.30;5.00;;;3.90;99.90;;;;;;5050560;28;20218;-65
2023/01/25 07:56:16;;;;;;;5.00;4.60;;;3.80;99.90;;;;;;5050112;28;20678;-64
2023/01/25 07:58:43;;;;;;;5.07;4.67;;;3.80;99.90;;;;;;5050504;28;20208;-66
2023/01/25 08:01:11;;;;;;;4.27;4.07;;;3.70;99.90;;;;;;5050421;28;20220;-65
2023/01/25 08:03:38;;;;;;;4.93;4.57;;;3.80;99.90;;;;;;5050077;28;20238;-66
2023/01/25 08:06:07;;;;;;;4.77;4.47;;;3.70;99.90;;;;;;5050159;28;20245;-65
2023/01/25 08:08:36;;;;;;;4.93;4.63;;;3.60;99.90;;;;;;5049975;28;20265;-65
2023/01/25 08:11:10;;;;;;;4.93;4.53;;;3.60;99.90;;;;;;5050161;28;20220;-64
2023/01/25 08:13:37;;;;;;;4.70;4.40;;;3.70;99.90;;;;;;5051507;28;20230;-65
2023/01/25 08:16:04;;;;;;;4.87;4.57;;;3.80;99.90;;;;;;5050838;28;20206;-68
2023/01/25 08:18:31;;;;;;;4.93;4.63;;;3.80;99.90;;;;;;5054889;28;20694;-65
2023/01/25 08:20:58;;;;;;;6.00;5.60;;;3.70;99.90;;;;;;5054400;28;20314;-67
2023/01/25 08:23:28;;;;;;;5.27;4.97;;;3.50;99.90;;;;;;5055393;28;20199;-64
2023/01/25 08:25:55;;;;;;;4.90;4.50;;;3.30;99.90;;;;;;5063130;28;20199;-66
2023/01/25 08:28:22;;;;;;;4.20;3.90;;;3.40;99.90;;;;;;5062558;28;20739;-65
2023/01/25 08:30:48;;;;;;;4.13;3.93;;;3.40;99.90;;;;;;5058845;28;20315;-67
2023/01/25 08:33:15;;;;;;;4.53;4.27;;;3.50;99.90;;;;;;5055636;28;20219;-65
2023/01/25 08:35:42;;;;;;;4.70;4.40;;;3.60;99.90;;;;;;5054548;28;20203;-67
2023/01/25 08:38:09;;;;;;;5.20;4.90;;;3.60;99.90;;;;;;5054758;28;20207;-64
2023/01/25 08:40:37;;;;;;;5.47;5.10;;;3.60;99.90;;;;;;5054982;28;20319;-66
2023/01/25 08:43:04;;;;;;;5.17;4.87;;;3.60;99.90;;;;;;5054995;28;20208;-64
2023/01/25 08:45:35;;;;;;;5.10;4.80;;;3.60;99.90;;;;;;5055427;28;20231;-65
2023/01/25 08:48:02;;;;;;;4.87;4.47;;;3.60;99.90;;;;;;5055371;28;20421;-64
2023/01/25 08:50:29;;;;;;;5.80;5.40;;;3.70;99.90;;;;;;5056629;28;20204;-66
2023/01/25 08:52:56;;;;;;;6.00;5.60;;;3.80;99.90;;;;;;5056043;28;20240;-65
2023/01/25 08:55:23;;;;;;;4.60;4.30;;;3.90;99.90;;;;;;5054808;28;20246;-68
2023/01/25 08:57:51;;;;;;;4.43;4.23;;;4.00;99.90;;;;;;5055691;28;20571;-65
2023/01/25 09:00:19;;;;;;;4.60;4.30;;;4.00;99.90;;;;;;5055045;28;20222;-65
2023/01/25 09:02:46;;;;;;;4.13;3.90;;;4.00;99.90;;;;;;5055691;28;20208;-64
2023/01/25 09:05:12;;;;;;;4.10;3.90;;;4.00;99.90;;;;;;5054634;28;20235;-64
2023/01/25 09:07:39;;;;;;;3.60;3.40;;;4.20;99.90;;;;;;5057814;28;20282;-66
2023/01/25 09:10:07;;;;;;;4.00;3.80;;;4.20;99.90;;;;;;5054422;28;20204;-65
2023/01/25 09:12:34;;;;;;;4.03;3.83;;;4.20;99.90;;;;;;5054912;28;20315;-65
2023/01/25 09:15:04;;;;;;;3.80;3.60;;;4.30;99.90;;;;;;5054729;28;20602;-66
2023/01/25 09:17:31;;;;;;;3.37;3.17;;;4.40;99.90;;;;;;5054827;28;20960;-65
2023/01/25 09:19:57;;;;;;;3.57;3.37;;;4.50;99.90;;;;;;5054339;28;20204;-67
2023/01/25 09:22:24;;;;;;;3.40;3.20;;;4.50;99.90;;;;;;5054307;28;20710;-65
2023/01/25 09:24:52;;;;;;;3.73;3.53;;;4.50;99.90;;;;;;5053933;28;20666;-65
2023/01/25 09:27:20;;;;;;;4.10;3.90;;;4.60;99.90;;;;;;5054335;28;20261;-66
2023/01/25 09:29:46;;;;;;;5.27;4.87;;;4.80;99.90;;;;;;5053657;28;20606;-67
2023/01/25 09:32:15;;;;;;;4.30;4.10;;;4.70;99.90;;;;;;5054023;28;20714;-65
2023/01/25 09:34:41;;;;;;;4.50;4.20;;;4.60;99.90;;;;;;5054352;28;20307;-65
2023/01/25 09:37:08;;;;;;;4.47;4.17;;;4.60;99.90;;;;;;5053934;28;20215;-67
2023/01/25 09:39:35;;;;;;;4.13;3.93;;;4.60;99.90;;;;;;5053165;28;20218;-65
2023/01/25 09:42:41;;;;;;;3.93;3.73;;;4.40;99.90;;;;;;5052509;28;20228;-67
2023/01/25 09:45:27;;;;;;;4.87;4.57;;;4.30;99.90;;;;;;5052670;28;20202;-67
2023/01/25 09:48:03;;;;;;;4.10;3.90;;;4.30;99.90;;;;;;5052658;28;20204;-66
2023/01/25 09:50:34;;;;;;;4.50;4.20;;;4.30;99.90;;;;;;5052483;28;20584;-66
2023/01/25 09:53:30;;;;;;;4.57;4.27;;;4.30;99.90;;;;;;5052359;28;20208;-66
2023/01/25 09:55:59;;;;;;;4.60;4.30;;;4.30;99.90;;;;;;5052452;28;20295;-67
2023/01/25 09:58:34;;;;;;;4.07;3.87;;;4.40;99.90;;;;;;5052273;28;20212;-64
2023/01/25 10:01:25;;;;;;;5.80;5.40;;;4.50;99.90;;;;;;5052489;28;20216;-65
2023/01/25 10:03:59;;;;;;;4.97;4.67;;;4.50;99.90;;;;;;5052288;28;20291;-66
2023/01/25 10:06:36;;;;;;;5.00;4.70;;;4.50;99.90;;;;;;5052504;28;20578;-65
2023/01/25 10:09:12;;;;;;;5.47;5.07;;;4.60;99.90;;;;;;5053106;28;20199;-65
2023/01/25 10:11:40;;;;;;;5.13;4.83;;;4.70;99.90;;;;;;5063708;28;20247;-68
2023/01/25 10:14:14;;;;;;;6.03;5.53;;;4.70;99.90;;;;;;5067919;28;20234;-68
2023/01/25 10:16:50;;;;;;;4.93;4.63;;;4.70;99.90;;;;;;5054669;28;20220;-65
2023/01/25 10:19:25;;;;;;;4.20;4.00;;;4.70;99.90;;;;;;5054078;28;20589;-68
2023/01/25 10:21:57;;;;;;;4.50;4.23;;;4.80;99.90;;;;;;5059873;28;20307;-65
2023/01/25 10:24:41;;;;;;;5.13;4.83;;;4.70;99.90;;;;;;5057094;28;20200;-64
2023/01/25 10:27:19;;;;;;;4.50;4.20;;;4.70;99.90;;;;;;5059857;28;20203;-67
2023/01/25 10:29:47;;;;;;;4.63;4.33;;;4.70;99.90;;;;;;5061282;28;20204;-67
2023/01/25 10:32:18;;;;;;;4.83;4.50;;;4.80;99.90;;;;;;5067104;28;20287;-69
2023/01/25 10:34:49;;;;;;;4.50;4.20;;;4.90;99.90;;;;;;5071586;28;20246;-72
2023/01/25 10:37:20;;;;;;;4.27;3.97;;;4.80;99.90;;;;;;5065115;28;20824;-66
2023/01/25 10:39:56;;;;;;;4.30;4.07;;;4.80;99.90;;;;;;5060163;28;20212;-65
2023/01/25 10:42:27;;;;;;;4.30;4.00;;;4.80;99.90;;;;;;5061050;28;20227;-66
2023/01/25 10:44:53;;;;;;;4.17;3.93;;;4.70;99.90;;;;;;5053267;28;20200;-66
2023/01/25 10:47:25;;;;;;;4.50;4.20;;;4.70;99.90;;;;;;5053167;28;20208;-66
2023/01/25 10:49:55;;;;;;;4.63;4.33;;;4.70;99.90;;;;;;5052439;28;20214;-65
2023/01/25 10:52:24;;;;;;;3.80;3.57;;;4.70;99.90;;;;;;5052310;28;20232;-66
2023/01/25 10:55:11;;;;;;;4.20;4.00;;;4.80;99.90;;;;;;5051483;28;20255;-67
2023/01/25 10:57:42;;;;;;;3.80;3.60;;;5.10;99.90;;;;;;5055849;28;20204;-69
2023/01/25 11:00:24;;;;;;;4.70;4.40;;;5.10;99.90;;;;;;5056790;28;20219;-70
2023/01/25 11:02:50;;;;;;;5.00;4.70;;;5.20;99.90;;;;;;5057393;28;20208;-65
2023/01/25 11:05:31;;;;;;;4.30;4.00;;;5.20;99.90;;;;;;5058479;28;20204;-66
2023/01/25 11:07:59;;;;;;;4.23;3.97;;;5.20;99.90;;;;;;5058581;28;20214;-64
2023/01/25 11:10:33;;;;;;;4.13;3.93;;;5.00;99.90;;;;;;5058049;28;20204;-65
2023/01/25 11:13:25;;;;;;;4.03;3.77;;;4.90;99.90;;;;;;5056999;28;20295;-64
2023/01/25 11:15:53;;;;;;;4.47;4.17;;;5.00;99.90;;;;;;5056186;28;20247;-65
2023/01/25 11:18:22;;;;;;;4.20;3.90;;;5.10;99.90;;;;;;5053464;28;20298;-66
2023/01/25 11:21:05;;;;;;;3.90;3.70;;;5.20;99.90;;;;;;5054649;28;20251;-67
2023/01/25 11:23:32;;;;;;;3.63;3.43;;;5.20;99.90;;;;;;5053354;28;20207;-64
2023/01/25 11:26:13;;;;;;;3.70;3.50;;;5.20;99.90;;;;;;5053486;28;20200;-69
2023/01/25 11:28:40;;;;;;;3.70;3.50;;;5.30;99.90;;;;;;5054159;28;20696;-64
2023/01/25 11:31:12;;;;;;;3.87;3.63;;;5.40;99.90;;;;;;5051873;28;20224;-63
2023/01/25 11:33:40;;;;;;;3.50;3.30;;;5.50;99.90;;;;;;5052910;28;20196;-68
2023/01/25 11:36:22;;;;;;;3.47;3.27;;;5.40;99.90;;;;;;5054586;28;20819;-65
2023/01/25 11:39:05;;;;;;;3.70;3.40;;;5.40;99.90;;;;;;5052316;28;20246;-67
2023/01/25 11:41:45;;;;;;;3.83;3.63;;;5.40;99.90;;;;;;5051805;28;20226;-65
2023/01/25 11:44:47;;;;;;;3.63;3.43;;;5.30;99.90;;;;;;5053456;28;20199;-63
2023/01/25 11:47:22;;;;;;;3.90;3.70;;;5.20;99.90;;;;;;5052598;28;20204;-68
2023/01/25 11:50:00;;;;;;;3.77;3.47;;;5.20;99.90;;;;;;5052211;28;20612;-65
2023/01/25 11:52:37;;;;;;;3.57;3.37;;;5.30;99.90;;;;;;5052483;28;20227;-65
2023/01/25 11:55:20;;;;;;;3.70;3.50;;;5.40;99.90;;;;;;5058086;28;20254;-67
2023/01/25 11:58:03;;;;;;;4.03;3.83;;;5.50;99.90;;;;;;5064384;28;20275;-65
2023/01/25 12:00:48;;;;;;;3.70;3.50;;;5.60;99.90;;;;;;5057334;28;20207;-68
2023/01/25 12:03:57;;;;;;;4.00;3.80;;;5.70;99.90;;;;;;5055718;28;20310;-66
2023/01/25 12:06:32;;;;;;;3.70;3.50;;;5.70;99.90;;;;;;5033328;28;20211;-64
2023/01/25 12:09:24;;;;;;;3.80;3.60;;;5.70;99.90;;;;;;5054153;28;20301;-66
2023/01/25 12:12:04;;;;;;;3.50;3.30;;;5.70;99.90;;;;;;5055030;28;20224;-66
2023/01/25 12:14:43;;;;;;;3.60;3.40;;;5.50;99.90;;;;;;5057671;28;20310;-70
2023/01/25 12:17:31;;;;;;;3.93;3.63;;;5.50;99.90;;;;;;5054706;28;20299;-66
2023/01/25 12:20:19;;;;;;;3.50;3.30;;;5.50;99.90;;;;;;5053741;28;20204;-65
2023/01/25 12:23:09;;;;;;;3.70;3.50;;;5.50;99.90;;;;;;5051992;28;20658;-64
2023/01/25 12:25:50;;;;;;;4.13;3.83;;;5.50;99.90;;;;;;5048621;28;20204;-66
2023/01/25 12:28:23;;;;;;;4.10;3.90;;;5.50;99.90;;;;;;5057802;28;20214;-65
2023/01/25 12:30:54;;;;;;;4.23;3.93;;;5.60;99.90;;;;;;5055440;28;20227;-64
2023/01/25 12:33:27;;;;;;;3.77;3.57;;;5.70;99.90;;;;;;5052418;28;20204;-71
2023/01/25 12:36:01;;;;;;;3.90;3.70;;;5.40;99.90;;;;;;5051575;28;20223;-64
2023/01/25 12:38:35;;;;;;;4.17;3.87;;;5.20;99.90;;;;;;5053841;28;20761;-65
2023/01/25 12:41:13;;;;;;;3.77;3.53;;;5.00;99.90;;;;;;5055418;28;20736;-66
2023/01/25 12:43:48;;;;;;;3.63;3.43;;;5.10;99.90;;;;;;5054711;28;20211;-66
2023/01/25 12:46:28;;;;;;;3.13;2.93;;;5.10;99.90;;;;;;5054333;28;20289;-66
2023/01/25 12:48:59;;;;;;;3.30;3.10;;;5.00;99.90;;;;;;5053980;28;20211;-65
2023/01/25 12:51:34;;;;;;;3.60;3.40;;;5.20;99.90;;;;;;5053971;28;20226;-66
2023/01/25 12:54:03;;;;;;;3.27;3.07;;;5.10;99.90;;;;;;5051685;28;20208;-66
2023/01/25 12:56:42;;;;;;;3.33;3.13;;;5.00;99.90;;;;;;5049717;28;20228;-65
2023/01/25 12:59:21;;;;;;;3.40;3.20;;;4.90;99.90;;;;;;5049651;28;20234;-65
2023/01/25 13:01:54;;;;;;;3.93;3.63;;;4.80;99.90;;;;;;5050303;28;20230;-65
2023/01/25 13:04:37;;;;;;;3.23;3.03;;;4.80;99.90;;;;;;5052054;28;20848;-65
2023/01/25 13:07:15;;;;;;;3.27;3.07;;;4.80;99.90;;;;;;5055397;28;20184;-65
2023/01/25 13:09:51;;;;;;;3.67;3.37;;;4.80;99.90;;;;;;5060969;28;20243;-67
2023/01/25 13:12:19;;;;;;;3.57;3.37;;;4.90;99.90;;;;;;5058828;28;20775;-67
2023/01/25 13:14:46;;;;;;;3.43;3.23;;;4.80;99.90;;;;;;5053655;28;20285;-67
2023/01/25 13:17:22;;;;;;;4.93;3.63;;;4.80;99.90;;;;;;5052936;28;20208;-65
2023/01/25 13:19:50;;;;;;;3.50;3.30;;;4.70;99.90;;;;;;5053583;28;20286;-64